This is the latest recevied weather packets stored in our database for station/object HP1CDW-13. If no packets are shown the sender has not sent any weather packets the latest 10 day(s).
| Time | Temp. | Humidity | Pressure | Rain* | Wind** | Luminosity | Snow |
|---|---|---|---|---|---|---|---|
| 1777487090 | 26.67° C | 92% | 1011.1 hPa | 13.72 mm | - | - | - |
| 1777486490 | 26.67° C | 92% | 1011.3 hPa | 13.72 mm | - | - | - |
| 1777485890 | 26.67° C | 91% | 1011.7 hPa | 13.21 mm | - | - | - |
| 1777485290 | 27.22° C | 90% | 1011.8 hPa | 10.41 mm | - | - | - |
| 1777484690 | 27.78° C | 89% | 1012.2 hPa | 6.1 mm | - | - | - |
| 1777484090 | 28.33° C | 84% | 1012.2 hPa | 1.52 mm | - | - | - |
| 1777483490 | 31.11° C | 76% | 1012.1 hPa | 0.25 mm | - | - | - |
| 1777482890 | 31.67° C | 72% | 1012.4 hPa | 0.25 mm | - | - | - |
| 1777482290 | 32.22° C | 67% | 1012.6 hPa | 0.25 mm | - | - | - |
| 1777481690 | 33.33° C | 62% | 1012.7 hPa | 0 mm | - | - | - |
| 1777481090 | 32.78° C | 65% | 1012.6 hPa | 0 mm | - | - | - |
| 1777480490 | 33.89° C | 62% | 1012.7 hPa | 0 mm | - | - | - |
| 1777479890 | 33.89° C | 61% | 1012.5 hPa | 0 mm | - | - | - |
| 1777479290 | 33.89° C | 60% | 1012.8 hPa | 0 mm | - | - | - |
| 1777478690 | 33.89° C | 61% | 1013 hPa | 0 mm | - | - | - |
| 1777478090 | 32.78° C | 62% | 1013.1 hPa | 0 mm | - | - | - |
| 1777477490 | 33.33° C | 63% | 1013.1 hPa | 0 mm | - | - | - |
| 1777476890 | 32.78° C | 64% | 1012.9 hPa | 0 mm | - | - | - |
| 1777476290 | 33.33° C | 63% | 1013.5 hPa | 0 mm | - | - | - |
| 1777475690 | 32.78° C | 64% | 1013.4 hPa | 0 mm | - | - | - |
| 1777475090 | 32.22° C | 66% | 1013.4 hPa | 0 mm | - | - | - |
| 1777474490 | 32.22° C | 66% | 1013.6 hPa | 0 mm | - | - | - |
| 1777473890 | 31.67° C | 68% | 1013.5 hPa | 0 mm | - | - | - |
| 1777473290 | 31.67° C | 69% | 1013.6 hPa | 0 mm | - | - | - |
| 1777472690 | 31.67° C | 69% | 1013.7 hPa | 0 mm | - | - | - |
* Rain latest hour (hover to see other rain measurements)
** Current wind speed in m/s (hover to see current wind gust speed)